sensor_id;sensor_type;location;lat;lon;timestamp;P1;durP1;ratioP1;P2;durP2;ratioP2
21458;SDS011;10891;49.350;19.386;2022-11-28T00:02:19;57.83;;;25.95;;
21458;SDS011;10891;49.350;19.386;2022-11-28T00:04:50;56.75;;;26.20;;
21458;SDS011;10891;49.350;19.386;2022-11-28T00:07:17;119.03;;;44.13;;
21458;SDS011;10891;49.350;19.386;2022-11-28T00:09:44;81.68;;;37.00;;
21458;SDS011;10891;49.350;19.386;2022-11-28T00:12:11;61.22;;;28.15;;
21458;SDS011;10891;49.350;19.386;2022-11-28T00:14:38;48.58;;;24.80;;
21458;SDS011;10891;49.350;19.386;2022-11-28T00:17:04;53.97;;;25.23;;
21458;SDS011;10891;49.350;19.386;2022-11-28T00:19:31;52.45;;;25.92;;
21458;SDS011;10891;49.350;19.386;2022-11-28T00:22:00;50.63;;;24.85;;
21458;SDS011;10891;49.350;19.386;2022-11-28T00:24:26;41.38;;;21.52;;
21458;SDS011;10891;49.350;19.386;2022-11-28T00:26:53;53.58;;;26.73;;
21458;SDS011;10891;49.350;19.386;2022-11-28T00:29:20;50.63;;;24.33;;
21458;SDS011;10891;49.350;19.386;2022-11-28T00:31:47;44.45;;;23.00;;
21458;SDS011;10891;49.350;19.386;2022-11-28T00:34:14;43.00;;;22.33;;
21458;SDS011;10891;49.350;19.386;2022-11-28T00:36:42;45.33;;;23.40;;
21458;SDS011;10891;49.350;19.386;2022-11-28T00:39:12;43.42;;;21.55;;
21458;SDS011;10891;49.350;19.386;2022-11-28T00:41:39;44.95;;;22.55;;
21458;SDS011;10891;49.350;19.386;2022-11-28T00:44:06;38.75;;;19.30;;
21458;SDS011;10891;49.350;19.386;2022-11-28T00:46:33;40.13;;;19.70;;
21458;SDS011;10891;49.350;19.386;2022-11-28T00:49:00;40.92;;;20.90;;
21458;SDS011;10891;49.350;19.386;2022-11-28T00:51:28;41.13;;;20.50;;
21458;SDS011;10891;49.350;19.386;2022-11-28T00:53:57;35.65;;;17.95;;
21458;SDS011;10891;49.350;19.386;2022-11-28T00:56:27;41.13;;;20.60;;
21458;SDS011;10891;49.350;19.386;2022-11-28T00:58:56;45.25;;;21.17;;
21458;SDS011;10891;49.350;19.386;2022-11-28T01:01:23;43.83;;;21.17;;
21458;SDS011;10891;49.350;19.386;2022-11-28T01:03:52;42.42;;;20.88;;
21458;SDS011;10891;49.350;19.386;2022-11-28T01:06:20;44.70;;;21.95;;
21458;SDS011;10891;49.350;19.386;2022-11-28T01:08:48;41.85;;;21.33;;
21458;SDS011;10891;49.350;19.386;2022-11-28T01:11:15;42.95;;;20.52;;
21458;SDS011;10891;49.350;19.386;2022-11-28T01:13:43;46.53;;;23.35;;
21458;SDS011;10891;49.350;19.386;2022-11-28T01:16:10;50.15;;;22.67;;
21458;SDS011;10891;49.350;19.386;2022-11-28T01:18:38;39.88;;;20.08;;
21458;SDS011;10891;49.350;19.386;2022-11-28T01:21:05;43.85;;;22.20;;
21458;SDS011;10891;49.350;19.386;2022-11-28T01:23:32;37.13;;;18.80;;
21458;SDS011;10891;49.350;19.386;2022-11-28T01:25:59;36.42;;;18.08;;
21458;SDS011;10891;49.350;19.386;2022-11-28T01:28:27;39.95;;;19.17;;
21458;SDS011;10891;49.350;19.386;2022-11-28T01:30:55;41.25;;;20.25;;
21458;SDS011;10891;49.350;19.386;2022-11-28T01:33:27;39.55;;;20.85;;
21458;SDS011;10891;49.350;19.386;2022-11-28T01:35:54;48.42;;;22.65;;
21458;SDS011;10891;49.350;19.386;2022-11-28T01:38:21;41.05;;;20.55;;
21458;SDS011;10891;49.350;19.386;2022-11-28T01:40:48;44.88;;;22.50;;
21458;SDS011;10891;49.350;19.386;2022-11-28T01:43:15;45.50;;;23.00;;
21458;SDS011;10891;49.350;19.386;2022-11-28T01:45:42;43.30;;;20.95;;
21458;SDS011;10891;49.350;19.386;2022-11-28T01:48:11;55.50;;;27.27;;
21458;SDS011;10891;49.350;19.386;2022-11-28T01:50:41;36.75;;;18.33;;
21458;SDS011;10891;49.350;19.386;2022-11-28T01:53:10;39.55;;;19.27;;
21458;SDS011;10891;49.350;19.386;2022-11-28T01:55:39;36.88;;;19.08;;
21458;SDS011;10891;49.350;19.386;2022-11-28T01:58:11;40.65;;;20.50;;
21458;SDS011;10891;49.350;19.386;2022-11-28T02:00:39;47.97;;;22.65;;
21458;SDS011;10891;49.350;19.386;2022-11-28T02:03:07;46.30;;;21.73;;
21458;SDS011;10891;49.350;19.386;2022-11-28T02:05:38;42.22;;;20.15;;
21458;SDS011;10891;49.350;19.386;2022-11-28T02:08:06;43.25;;;20.90;;
21458;SDS011;10891;49.350;19.386;2022-11-28T02:10:36;36.63;;;17.73;;
21458;SDS011;10891;49.350;19.386;2022-11-28T02:13:17;39.15;;;19.55;;
21458;SDS011;10891;49.350;19.386;2022-11-28T02:15:58;40.50;;;20.63;;
21458;SDS011;10891;49.350;19.386;2022-11-28T02:18:43;39.13;;;18.75;;
21458;SDS011;10891;49.350;19.386;2022-11-28T02:21:22;40.78;;;20.02;;
21458;SDS011;10891;49.350;19.386;2022-11-28T02:24:13;42.92;;;19.17;;
21458;SDS011;10891;49.350;19.386;2022-11-28T02:27:11;36.10;;;16.77;;
21458;SDS011;10891;49.350;19.386;2022-11-28T02:29:51;40.13;;;19.58;;
21458;SDS011;10891;49.350;19.386;2022-11-28T02:35:33;37.42;;;17.63;;
21458;SDS011;10891;49.350;19.386;2022-11-28T02:38:08;39.20;;;17.65;;
21458;SDS011;10891;49.350;19.386;2022-11-28T02:40:41;37.97;;;16.17;;
21458;SDS011;10891;49.350;19.386;2022-11-28T02:43:16;41.20;;;18.98;;
21458;SDS011;10891;49.350;19.386;2022-11-28T02:45:49;33.05;;;17.05;;
21458;SDS011;10891;49.350;19.386;2022-11-28T02:48:25;37.03;;;17.38;;
21458;SDS011;10891;49.350;19.386;2022-11-28T02:50:57;38.15;;;17.80;;
21458;SDS011;10891;49.350;19.386;2022-11-28T02:53:27;34.05;;;16.13;;
21458;SDS011;10891;49.350;19.386;2022-11-28T02:55:57;34.90;;;18.25;;
21458;SDS011;10891;49.350;19.386;2022-11-28T02:58:25;37.30;;;18.42;;
21458;SDS011;10891;49.350;19.386;2022-11-28T03:00:52;36.03;;;17.88;;
21458;SDS011;10891;49.350;19.386;2022-11-28T03:06:26;34.38;;;15.40;;
21458;SDS011;10891;49.350;19.386;2022-11-28T03:09:05;38.25;;;19.98;;
21458;SDS011;10891;49.350;19.386;2022-11-28T03:11:46;44.25;;;20.65;;
21458;SDS011;10891;49.350;19.386;2022-11-28T03:14:22;40.03;;;18.92;;
21458;SDS011;10891;49.350;19.386;2022-11-28T03:16:55;39.60;;;19.60;;
21458;SDS011;10891;49.350;19.386;2022-11-28T03:19:29;37.65;;;19.65;;
21458;SDS011;10891;49.350;19.386;2022-11-28T03:22:01;43.88;;;20.48;;
21458;SDS011;10891;49.350;19.386;2022-11-28T03:24:35;38.08;;;15.00;;
21458;SDS011;10891;49.350;19.386;2022-11-28T03:27:07;42.55;;;20.23;;
21458;SDS011;10891;49.350;19.386;2022-11-28T03:29:41;40.78;;;20.75;;
21458;SDS011;10891;49.350;19.386;2022-11-28T03:32:12;38.50;;;20.00;;
21458;SDS011;10891;49.350;19.386;2022-11-28T03:34:46;43.63;;;20.98;;
21458;SDS011;10891;49.350;19.386;2022-11-28T03:37:19;43.83;;;21.98;;
21458;SDS011;10891;49.350;19.386;2022-11-28T03:39:52;46.58;;;22.15;;
21458;SDS011;10891;49.350;19.386;2022-11-28T03:42:23;49.35;;;21.60;;
21458;SDS011;10891;49.350;19.386;2022-11-28T03:44:55;51.95;;;23.98;;
21458;SDS011;10891;49.350;19.386;2022-11-28T03:47:26;49.55;;;21.77;;
21458;SDS011;10891;49.350;19.386;2022-11-28T03:49:59;41.75;;;18.98;;
21458;SDS011;10891;49.350;19.386;2022-11-28T03:52:30;52.20;;;24.00;;
21458;SDS011;10891;49.350;19.386;2022-11-28T03:55:01;48.60;;;23.88;;
21458;SDS011;10891;49.350;19.386;2022-11-28T03:57:33;49.50;;;22.45;;
21458;SDS011;10891;49.350;19.386;2022-11-28T04:00:03;42.72;;;19.75;;
21458;SDS011;10891;49.350;19.386;2022-11-28T04:02:33;50.30;;;22.88;;
21458;SDS011;10891;49.350;19.386;2022-11-28T04:05:06;52.33;;;22.40;;
21458;SDS011;10891;49.350;19.386;2022-11-28T04:07:42;47.05;;;22.35;;
21458;SDS011;10891;49.350;19.386;2022-11-28T04:10:13;52.80;;;23.17;;
21458;SDS011;10891;49.350;19.386;2022-11-28T04:12:49;53.90;;;23.80;;
21458;SDS011;10891;49.350;19.386;2022-11-28T04:15:24;52.47;;;23.85;;
21458;SDS011;10891;49.350;19.386;2022-11-28T04:17:58;55.63;;;24.63;;
21458;SDS011;10891;49.350;19.386;2022-11-28T04:20:32;57.53;;;23.83;;
21458;SDS011;10891;49.350;19.386;2022-11-28T04:23:05;55.08;;;23.80;;
21458;SDS011;10891;49.350;19.386;2022-11-28T04:25:35;51.88;;;20.60;;
21458;SDS011;10891;49.350;19.386;2022-11-28T04:28:06;51.92;;;22.75;;
21458;SDS011;10891;49.350;19.386;2022-11-28T04:30:36;48.10;;;19.85;;
21458;SDS011;10891;49.350;19.386;2022-11-28T04:33:06;55.35;;;22.88;;
21458;SDS011;10891;49.350;19.386;2022-11-28T04:35:37;41.60;;;18.05;;
21458;SDS011;10891;49.350;19.386;2022-11-28T04:38:07;55.72;;;22.77;;
21458;SDS011;10891;49.350;19.386;2022-11-28T04:40:39;43.35;;;19.27;;
21458;SDS011;10891;49.350;19.386;2022-11-28T04:43:12;58.63;;;23.67;;
21458;SDS011;10891;49.350;19.386;2022-11-28T04:45:44;53.78;;;19.88;;
21458;SDS011;10891;49.350;19.386;2022-11-28T04:48:13;52.92;;;22.35;;
21458;SDS011;10891;49.350;19.386;2022-11-28T04:50:42;50.45;;;21.40;;
21458;SDS011;10891;49.350;19.386;2022-11-28T04:53:15;49.38;;;21.67;;
21458;SDS011;10891;49.350;19.386;2022-11-28T04:55:48;53.97;;;21.92;;
21458;SDS011;10891;49.350;19.386;2022-11-28T04:58:20;46.60;;;20.20;;
21458;SDS011;10891;49.350;19.386;2022-11-28T05:00:51;49.05;;;22.10;;
21458;SDS011;10891;49.350;19.386;2022-11-28T05:03:20;51.67;;;22.75;;
21458;SDS011;10891;49.350;19.386;2022-11-28T05:05:53;54.42;;;25.20;;
21458;SDS011;10891;49.350;19.386;2022-11-28T05:08:19;53.45;;;24.85;;
21458;SDS011;10891;49.350;19.386;2022-11-28T05:10:46;52.35;;;22.00;;
21458;SDS011;10891;49.350;19.386;2022-11-28T05:13:14;54.08;;;24.63;;
21458;SDS011;10891;49.350;19.386;2022-11-28T05:15:42;56.10;;;25.25;;
21458;SDS011;10891;49.350;19.386;2022-11-28T05:18:09;54.53;;;24.60;;
21458;SDS011;10891;49.350;19.386;2022-11-28T05:20:36;58.10;;;24.58;;
21458;SDS011;10891;49.350;19.386;2022-11-28T05:23:05;54.25;;;23.60;;
21458;SDS011;10891;49.350;19.386;2022-11-28T05:25:32;59.03;;;25.73;;
21458;SDS011;10891;49.350;19.386;2022-11-28T05:27:59;77.68;;;32.47;;
21458;SDS011;10891;49.350;19.386;2022-11-28T05:30:26;50.70;;;24.20;;
21458;SDS011;10891;49.350;19.386;2022-11-28T05:32:53;59.28;;;24.77;;
21458;SDS011;10891;49.350;19.386;2022-11-28T05:35:20;106.00;;;40.40;;
21458;SDS011;10891;49.350;19.386;2022-11-28T05:37:47;68.95;;;28.40;;
21458;SDS011;10891;49.350;19.386;2022-11-28T05:40:15;56.55;;;26.58;;
21458;SDS011;10891;49.350;19.386;2022-11-28T05:42:45;79.28;;;33.10;;
21458;SDS011;10891;49.350;19.386;2022-11-28T05:45:12;68.50;;;29.13;;
21458;SDS011;10891;49.350;19.386;2022-11-28T05:47:38;59.28;;;26.02;;
21458;SDS011;10891;49.350;19.386;2022-11-28T05:50:06;60.53;;;26.52;;
21458;SDS011;10891;49.350;19.386;2022-11-28T05:52:33;65.03;;;30.02;;
21458;SDS011;10891;49.350;19.386;2022-11-28T05:55:00;64.85;;;27.60;;
21458;SDS011;10891;49.350;19.386;2022-11-28T05:57:28;54.83;;;23.65;;
21458;SDS011;10891;49.350;19.386;2022-11-28T05:59:57;54.83;;;23.80;;
21458;SDS011;10891;49.350;19.386;2022-11-28T06:02:24;74.28;;;32.45;;
21458;SDS011;10891;49.350;19.386;2022-11-28T06:04:50;139.48;;;75.00;;
21458;SDS011;10891;49.350;19.386;2022-11-28T06:07:17;61.42;;;31.52;;
21458;SDS011;10891;49.350;19.386;2022-11-28T06:09:44;50.20;;;23.70;;
21458;SDS011;10891;49.350;19.386;2022-11-28T06:12:11;108.47;;;49.28;;
21458;SDS011;10891;49.350;19.386;2022-11-28T06:14:40;124.93;;;53.05;;
21458;SDS011;10891;49.350;19.386;2022-11-28T06:17:07;98.82;;;45.22;;
21458;SDS011;10891;49.350;19.386;2022-11-28T06:19:34;58.63;;;27.58;;
21458;SDS011;10891;49.350;19.386;2022-11-28T06:22:01;58.70;;;27.85;;
21458;SDS011;10891;49.350;19.386;2022-11-28T06:24:28;79.90;;;36.20;;
21458;SDS011;10891;49.350;19.386;2022-11-28T06:26:55;61.15;;;26.90;;
21458;SDS011;10891;49.350;19.386;2022-11-28T06:29:22;89.95;;;41.17;;
21458;SDS011;10891;49.350;19.386;2022-11-28T06:31:50;53.58;;;23.30;;
21458;SDS011;10891;49.350;19.386;2022-11-28T06:34:17;63.20;;;28.40;;
21458;SDS011;10891;49.350;19.386;2022-11-28T06:36:44;67.53;;;34.20;;
21458;SDS011;10891;49.350;19.386;2022-11-28T06:39:11;45.53;;;20.35;;
21458;SDS011;10891;49.350;19.386;2022-11-28T06:41:40;42.05;;;19.65;;
21458;SDS011;10891;49.350;19.386;2022-11-28T06:44:07;41.20;;;20.67;;
21458;SDS011;10891;49.350;19.386;2022-11-28T06:46:37;48.25;;;21.02;;
21458;SDS011;10891;49.350;19.386;2022-11-28T06:49:05;37.70;;;18.83;;
21458;SDS011;10891;49.350;19.386;2022-11-28T06:51:32;42.80;;;18.45;;
21458;SDS011;10891;49.350;19.386;2022-11-28T06:53:59;38.80;;;17.17;;
21458;SDS011;10891;49.350;19.386;2022-11-28T06:56:26;39.63;;;18.58;;
21458;SDS011;10891;49.350;19.386;2022-11-28T06:58:53;46.45;;;19.23;;
21458;SDS011;10891;49.350;19.386;2022-11-28T07:01:26;47.13;;;19.48;;
21458;SDS011;10891;49.350;19.386;2022-11-28T07:03:54;42.50;;;18.85;;
21458;SDS011;10891;49.350;19.386;2022-11-28T07:06:24;32.83;;;16.73;;
21458;SDS011;10891;49.350;19.386;2022-11-28T07:08:52;38.60;;;16.17;;
21458;SDS011;10891;49.350;19.386;2022-11-28T07:11:21;34.28;;;14.80;;
21458;SDS011;10891;49.350;19.386;2022-11-28T07:13:51;36.03;;;15.77;;
21458;SDS011;10891;49.350;19.386;2022-11-28T07:16:20;26.80;;;12.75;;
21458;SDS011;10891;49.350;19.386;2022-11-28T07:18:49;26.25;;;12.65;;
21458;SDS011;10891;49.350;19.386;2022-11-28T07:21:16;35.78;;;14.90;;
21458;SDS011;10891;49.350;19.386;2022-11-28T07:23:44;31.27;;;16.40;;
21458;SDS011;10891;49.350;19.386;2022-11-28T07:26:12;37.10;;;14.85;;
21458;SDS011;10891;49.350;19.386;2022-11-28T07:28:41;42.08;;;20.60;;
21458;SDS011;10891;49.350;19.386;2022-11-28T07:31:09;35.17;;;16.10;;
21458;SDS011;10891;49.350;19.386;2022-11-28T07:33:37;41.42;;;17.10;;
21458;SDS011;10891;49.350;19.386;2022-11-28T07:36:06;45.60;;;23.23;;
21458;SDS011;10891;49.350;19.386;2022-11-28T07:38:35;31.98;;;16.05;;
21458;SDS011;10891;49.350;19.386;2022-11-28T07:41:04;31.95;;;16.65;;
21458;SDS011;10891;49.350;19.386;2022-11-28T07:43:31;37.25;;;19.05;;
21458;SDS011;10891;49.350;19.386;2022-11-28T07:45:59;51.95;;;26.73;;
21458;SDS011;10891;49.350;19.386;2022-11-28T07:48:28;48.58;;;20.85;;
21458;SDS011;10891;49.350;19.386;2022-11-28T07:50:55;35.38;;;17.30;;
21458;SDS011;10891;49.350;19.386;2022-11-28T07:53:22;33.78;;;16.83;;
21458;SDS011;10891;49.350;19.386;2022-11-28T07:55:49;53.80;;;23.95;;
21458;SDS011;10891;49.350;19.386;2022-11-28T07:58:17;33.10;;;16.58;;
21458;SDS011;10891;49.350;19.386;2022-11-28T08:00:45;45.58;;;23.70;;
21458;SDS011;10891;49.350;19.386;2022-11-28T08:03:12;30.13;;;15.02;;
21458;SDS011;10891;49.350;19.386;2022-11-28T08:05:39;24.85;;;10.43;;
21458;SDS011;10891;49.350;19.386;2022-11-28T08:08:13;30.65;;;15.95;;
21458;SDS011;10891;49.350;19.386;2022-11-28T08:10:40;36.63;;;18.33;;
21458;SDS011;10891;49.350;19.386;2022-11-28T08:13:07;46.88;;;18.40;;
21458;SDS011;10891;49.350;19.386;2022-11-28T08:15:36;33.00;;;14.98;;
21458;SDS011;10891;49.350;19.386;2022-11-28T08:18:03;46.75;;;19.65;;
21458;SDS011;10891;49.350;19.386;2022-11-28T08:20:30;40.92;;;17.05;;
21458;SDS011;10891;49.350;19.386;2022-11-28T08:22:57;43.33;;;19.23;;
21458;SDS011;10891;49.350;19.386;2022-11-28T08:25:24;44.83;;;19.92;;
21458;SDS011;10891;49.350;19.386;2022-11-28T08:27:52;54.17;;;22.92;;
21458;SDS011;10891;49.350;19.386;2022-11-28T08:30:19;45.72;;;20.33;;
21458;SDS011;10891;49.350;19.386;2022-11-28T08:32:48;41.80;;;19.15;;
21458;SDS011;10891;49.350;19.386;2022-11-28T08:35:15;40.30;;;19.30;;
21458;SDS011;10891;49.350;19.386;2022-11-28T08:37:41;52.42;;;22.88;;
21458;SDS011;10891;49.350;19.386;2022-11-28T08:40:08;50.72;;;21.27;;
21458;SDS011;10891;49.350;19.386;2022-11-28T08:42:35;53.17;;;22.88;;
21458;SDS011;10891;49.350;19.386;2022-11-28T08:45:02;52.92;;;21.58;;
21458;SDS011;10891;49.350;19.386;2022-11-28T08:47:31;61.42;;;23.77;;
21458;SDS011;10891;49.350;19.386;2022-11-28T08:49:59;26.23;;;12.15;;
21458;SDS011;10891;49.350;19.386;2022-11-28T08:52:26;36.00;;;18.80;;
21458;SDS011;10891;49.350;19.386;2022-11-28T08:54:53;43.55;;;16.48;;
21458;SDS011;10891;49.350;19.386;2022-11-28T08:57:20;29.80;;;14.27;;
21458;SDS011;10891;49.350;19.386;2022-11-28T08:59:46;32.50;;;15.27;;
21458;SDS011;10891;49.350;19.386;2022-11-28T09:02:13;32.75;;;15.88;;
21458;SDS011;10891;49.350;19.386;2022-11-28T09:04:40;33.88;;;15.65;;
21458;SDS011;10891;49.350;19.386;2022-11-28T09:07:08;30.98;;;15.07;;
21458;SDS011;10891;49.350;19.386;2022-11-28T09:09:35;28.38;;;15.07;;
21458;SDS011;10891;49.350;19.386;2022-11-28T09:12:02;33.25;;;15.43;;
21458;SDS011;10891;49.350;19.386;2022-11-28T09:14:29;29.67;;;15.77;;
21458;SDS011;10891;49.350;19.386;2022-11-28T09:16:56;32.40;;;15.85;;
21458;SDS011;10891;49.350;19.386;2022-11-28T09:19:23;26.48;;;14.80;;
21458;SDS011;10891;49.350;19.386;2022-11-28T09:21:50;31.52;;;15.43;;
21458;SDS011;10891;49.350;19.386;2022-11-28T09:24:18;24.23;;;14.10;;
21458;SDS011;10891;49.350;19.386;2022-11-28T09:26:45;22.10;;;12.70;;
21458;SDS011;10891;49.350;19.386;2022-11-28T09:29:12;30.35;;;14.18;;
21458;SDS011;10891;49.350;19.386;2022-11-28T09:31:39;22.15;;;11.82;;
21458;SDS011;10891;49.350;19.386;2022-11-28T09:34:06;26.70;;;11.80;;
21458;SDS011;10891;49.350;19.386;2022-11-28T09:36:33;26.10;;;12.80;;
21458;SDS011;10891;49.350;19.386;2022-11-28T09:39:00;27.35;;;14.70;;
21458;SDS011;10891;49.350;19.386;2022-11-28T09:41:42;23.90;;;12.52;;
21458;SDS011;10891;49.350;19.386;2022-11-28T09:44:17;23.30;;;13.52;;
21458;SDS011;10891;49.350;19.386;2022-11-28T09:46:49;24.65;;;13.43;;
21458;SDS011;10891;49.350;19.386;2022-11-28T09:49:21;27.13;;;13.55;;
21458;SDS011;10891;49.350;19.386;2022-11-28T09:51:56;25.52;;;13.70;;
21458;SDS011;10891;49.350;19.386;2022-11-28T09:54:28;23.35;;;12.60;;
21458;SDS011;10891;49.350;19.386;2022-11-28T09:57:07;24.55;;;13.30;;
21458;SDS011;10891;49.350;19.386;2022-11-28T09:59:37;23.40;;;11.35;;
21458;SDS011;10891;49.350;19.386;2022-11-28T10:02:08;28.42;;;13.60;;
21458;SDS011;10891;49.350;19.386;2022-11-28T10:04:45;23.52;;;12.27;;
21458;SDS011;10891;49.350;19.386;2022-11-28T10:07:21;22.70;;;11.55;;
21458;SDS011;10891;49.350;19.386;2022-11-28T10:09:55;23.00;;;11.75;;
21458;SDS011;10891;49.350;19.386;2022-11-28T10:12:30;21.58;;;11.55;;
21458;SDS011;10891;49.350;19.386;2022-11-28T10:15:11;27.05;;;12.00;;
21458;SDS011;10891;49.350;19.386;2022-11-28T10:17:48;22.02;;;11.35;;
21458;SDS011;10891;49.350;19.386;2022-11-28T10:20:25;22.50;;;12.23;;
21458;SDS011;10891;49.350;19.386;2022-11-28T10:22:57;23.95;;;11.15;;
21458;SDS011;10891;49.350;19.386;2022-11-28T10:25:28;24.95;;;11.45;;
21458;SDS011;10891;49.350;19.386;2022-11-28T10:28:00;25.83;;;13.48;;
21458;SDS011;10891;49.350;19.386;2022-11-28T10:30:30;22.90;;;12.52;;
21458;SDS011;10891;49.350;19.386;2022-11-28T10:33:02;23.88;;;12.02;;
21458;SDS011;10891;49.350;19.386;2022-11-28T10:35:37;22.50;;;12.55;;
21458;SDS011;10891;49.350;19.386;2022-11-28T10:38:09;21.77;;;11.50;;
21458;SDS011;10891;49.350;19.386;2022-11-28T10:40:39;20.02;;;10.15;;
21458;SDS011;10891;49.350;19.386;2022-11-28T10:43:15;20.17;;;11.13;;
21458;SDS011;10891;49.350;19.386;2022-11-28T10:45:54;21.30;;;10.70;;
21458;SDS011;10891;49.350;19.386;2022-11-28T10:48:32;20.75;;;11.45;;
21458;SDS011;10891;49.350;19.386;2022-11-28T10:51:09;19.50;;;10.38;;
21458;SDS011;10891;49.350;19.386;2022-11-28T10:53:51;24.25;;;12.30;;
21458;SDS011;10891;49.350;19.386;2022-11-28T10:56:30;23.60;;;12.50;;
21458;SDS011;10891;49.350;19.386;2022-11-28T10:59:05;23.73;;;11.60;;
21458;SDS011;10891;49.350;19.386;2022-11-28T11:01:39;26.58;;;12.38;;
21458;SDS011;10891;49.350;19.386;2022-11-28T11:04:07;22.15;;;11.95;;
21458;SDS011;10891;49.350;19.386;2022-11-28T11:06:42;22.45;;;10.93;;
21458;SDS011;10891;49.350;19.386;2022-11-28T11:09:12;21.83;;;12.80;;
21458;SDS011;10891;49.350;19.386;2022-11-28T11:11:41;26.48;;;12.38;;
21458;SDS011;10891;49.350;19.386;2022-11-28T11:14:22;26.92;;;13.10;;
21458;SDS011;10891;49.350;19.386;2022-11-28T11:16:58;22.75;;;10.77;;
21458;SDS011;10891;49.350;19.386;2022-11-28T11:19:26;17.55;;;8.13;;
21458;SDS011;10891;49.350;19.386;2022-11-28T11:21:58;36.85;;;15.82;;
21458;SDS011;10891;49.350;19.386;2022-11-28T11:24:27;17.65;;;8.82;;
21458;SDS011;10891;49.350;19.386;2022-11-28T11:27:01;28.42;;;12.73;;
21458;SDS011;10891;49.350;19.386;2022-11-28T11:29:32;11.73;;;6.30;;
21458;SDS011;10891;49.350;19.386;2022-11-28T11:32:02;14.70;;;7.82;;
21458;SDS011;10891;49.350;19.386;2022-11-28T11:34:33;47.40;;;18.55;;
21458;SDS011;10891;49.350;19.386;2022-11-28T11:37:16;41.70;;;16.73;;
21458;SDS011;10891;49.350;19.386;2022-11-28T11:39:55;35.53;;;14.20;;
21458;SDS011;10891;49.350;19.386;2022-11-28T11:42:24;45.53;;;16.83;;
21458;SDS011;10891;49.350;19.386;2022-11-28T11:44:54;50.92;;;18.92;;
21458;SDS011;10891;49.350;19.386;2022-11-28T11:47:39;43.28;;;16.27;;
21458;SDS011;10891;49.350;19.386;2022-11-28T11:50:13;24.92;;;11.02;;
21458;SDS011;10891;49.350;19.386;2022-11-28T11:52:42;14.80;;;8.13;;
21458;SDS011;10891;49.350;19.386;2022-11-28T11:55:24;16.35;;;7.47;;
21458;SDS011;10891;49.350;19.386;2022-11-28T11:57:52;18.60;;;9.25;;
21458;SDS011;10891;49.350;19.386;2022-11-28T12:00:23;14.00;;;6.85;;
21458;SDS011;10891;49.350;19.386;2022-11-28T12:02:54;8.52;;;5.30;;
21458;SDS011;10891;49.350;19.386;2022-11-28T12:05:24;10.98;;;6.88;;
21458;SDS011;10891;49.350;19.386;2022-11-28T12:07:57;11.88;;;6.00;;
21458;SDS011;10891;49.350;19.386;2022-11-28T12:10:28;11.38;;;5.88;;
21458;SDS011;10891;49.350;19.386;2022-11-28T12:12:57;14.60;;;5.95;;
21458;SDS011;10891;49.350;19.386;2022-11-28T12:15:28;10.93;;;5.63;;
21458;SDS011;10891;49.350;19.386;2022-11-28T12:18:07;11.23;;;5.18;;
21458;SDS011;10891;49.350;19.386;2022-11-28T12:20:48;13.32;;;6.68;;
21458;SDS011;10891;49.350;19.386;2022-11-28T12:23:33;11.00;;;6.30;;
21458;SDS011;10891;49.350;19.386;2022-11-28T12:26:26;9.25;;;5.53;;
21458;SDS011;10891;49.350;19.386;2022-11-28T12:29:02;7.20;;;4.75;;
21458;SDS011;10891;49.350;19.386;2022-11-28T12:31:47;9.32;;;4.90;;
21458;SDS011;10891;49.350;19.386;2022-11-28T12:34:23;9.57;;;5.03;;
21458;SDS011;10891;49.350;19.386;2022-11-28T12:36:58;4.80;;;3.00;;
21458;SDS011;10891;49.350;19.386;2022-11-28T12:39:37;5.40;;;3.78;;
21458;SDS011;10891;49.350;19.386;2022-11-28T12:42:18;8.13;;;4.53;;
21458;SDS011;10891;49.350;19.386;2022-11-28T12:45:14;7.18;;;4.07;;
21458;SDS011;10891;49.350;19.386;2022-11-28T12:47:59;21.40;;;8.70;;
21458;SDS011;10891;49.350;19.386;2022-11-28T12:50:33;12.77;;;6.65;;
21458;SDS011;10891;49.350;19.386;2022-11-28T12:53:08;7.65;;;4.40;;
21458;SDS011;10891;49.350;19.386;2022-11-28T12:55:50;13.82;;;8.13;;
21458;SDS011;10891;49.350;19.386;2022-11-28T12:58:25;16.77;;;8.75;;
21458;SDS011;10891;49.350;19.386;2022-11-28T13:00:58;8.70;;;4.97;;
21458;SDS011;10891;49.350;19.386;2022-11-28T13:03:43;8.77;;;4.43;;
21458;SDS011;10891;49.350;19.386;2022-11-28T13:06:22;6.45;;;3.80;;
21458;SDS011;10891;49.350;19.386;2022-11-28T13:09:02;31.58;;;11.40;;
21458;SDS011;10891;49.350;19.386;2022-11-28T13:11:45;19.08;;;8.40;;
21458;SDS011;10891;49.350;19.386;2022-11-28T13:14:21;16.15;;;7.72;;
21458;SDS011;10891;49.350;19.386;2022-11-28T13:16:58;54.47;;;15.65;;
21458;SDS011;10891;49.350;19.386;2022-11-28T13:19:36;25.40;;;11.32;;
21458;SDS011;10891;49.350;19.386;2022-11-28T13:22:11;56.53;;;16.60;;
21458;SDS011;10891;49.350;19.386;2022-11-28T13:24:46;13.32;;;6.68;;
21458;SDS011;10891;49.350;19.386;2022-11-28T13:27:19;8.55;;;5.13;;
21458;SDS011;10891;49.350;19.386;2022-11-28T13:29:57;48.30;;;14.50;;
21458;SDS011;10891;49.350;19.386;2022-11-28T13:32:38;33.17;;;8.40;;
21458;SDS011;10891;49.350;19.386;2022-11-28T13:35:13;16.25;;;6.50;;
21458;SDS011;10891;49.350;19.386;2022-11-28T13:37:46;10.70;;;5.30;;
21458;SDS011;10891;49.350;19.386;2022-11-28T13:40:22;40.22;;;11.75;;
21458;SDS011;10891;49.350;19.386;2022-11-28T13:42:54;17.75;;;7.80;;
21458;SDS011;10891;49.350;19.386;2022-11-28T13:45:26;13.05;;;6.50;;
21458;SDS011;10891;49.350;19.386;2022-11-28T13:47:55;40.38;;;14.43;;
21458;SDS011;10891;49.350;19.386;2022-11-28T13:50:33;47.85;;;17.58;;
21458;SDS011;10891;49.350;19.386;2022-11-28T13:53:03;59.97;;;25.02;;
21458;SDS011;10891;49.350;19.386;2022-11-28T13:55:46;122.30;;;63.42;;
21458;SDS011;10891;49.350;19.386;2022-11-28T13:58:15;33.20;;;23.73;;
21458;SDS011;10891;49.350;19.386;2022-11-28T14:01:01;18.95;;;9.70;;
21458;SDS011;10891;49.350;19.386;2022-11-28T14:03:32;16.65;;;8.70;;
21458;SDS011;10891;49.350;19.386;2022-11-28T14:06:03;14.15;;;7.18;;
21458;SDS011;10891;49.350;19.386;2022-11-28T14:08:33;17.48;;;8.35;;
21458;SDS011;10891;49.350;19.386;2022-11-28T14:11:09;23.50;;;10.02;;
21458;SDS011;10891;49.350;19.386;2022-11-28T14:13:54;32.75;;;11.80;;
21458;SDS011;10891;49.350;19.386;2022-11-28T14:16:45;35.22;;;12.18;;
21458;SDS011;10891;49.350;19.386;2022-11-28T14:19:22;27.25;;;11.15;;
21458;SDS011;10891;49.350;19.386;2022-11-28T14:22:03;45.67;;;18.58;;
21458;SDS011;10891;49.350;19.386;2022-11-28T14:24:48;120.55;;;41.03;;
21458;SDS011;10891;49.350;19.386;2022-11-28T14:27:21;32.35;;;14.02;;
21458;SDS011;10891;49.350;19.386;2022-11-28T14:29:50;34.17;;;14.00;;
21458;SDS011;10891;49.350;19.386;2022-11-28T14:32:23;34.22;;;15.32;;
21458;SDS011;10891;49.350;19.386;2022-11-28T14:34:55;14.38;;;6.65;;
21458;SDS011;10891;49.350;19.386;2022-11-28T14:43:26;18.92;;;8.85;;
21458;SDS011;10891;49.350;19.386;2022-11-28T14:54:56;12.65;;;7.28;;
21458;SDS011;10891;49.350;19.386;2022-11-28T14:57:26;12.65;;;7.53;;